Terminal Aerodrome Forecast
Issued by NWS

Home | Current Version | Previous Version | Text Only | Print | Product List | Glossary On
Versions: 1 2 3 4 5 6 7 8 9 10 11 12 13
607
FTUS42 KMLB 260530
TAFFPR
TAF
KFPR 260530Z 2606/2706 15005KT P6SM FEW120
     FM261400 16007KT P6SM SCT025
     FM261700 12011KT P6SM VCTS BKN035CB
     FM262100 13012KT P6SM VCSH SCT035 BKN120=

USA.gov is the U.S. government's official web portal to all federal, state and local government web resources and services.